sensor_id;sensor_type;location;lat;lon;timestamp;temperature;humidity
3275;DHT22;1649;53.672;10.064;2022-12-13T00:00:09;-4.40;99.90
3275;DHT22;1649;53.672;10.064;2022-12-13T00:02:40;-4.30;99.90
3275;DHT22;1649;53.672;10.064;2022-12-13T00:05:06;-4.30;99.90
3275;DHT22;1649;53.672;10.064;2022-12-13T00:07:33;-4.20;99.90
3275;DHT22;1649;53.672;10.064;2022-12-13T00:09:58;-4.20;99.90
3275;DHT22;1649;53.672;10.064;2022-12-13T00:12:24;-4.30;99.90
3275;DHT22;1649;53.672;10.064;2022-12-13T00:14:49;-4.30;99.90
3275;DHT22;1649;53.672;10.064;2022-12-13T00:17:15;-4.30;99.90
3275;DHT22;1649;53.672;10.064;2022-12-13T00:19:40;-4.30;99.90
3275;DHT22;1649;53.672;10.064;2022-12-13T00:22:06;-4.30;99.90
3275;DHT22;1649;53.672;10.064;2022-12-13T00:24:31;-4.30;99.90
3275;DHT22;1649;53.672;10.064;2022-12-13T00:26:57;-4.30;99.90
3275;DHT22;1649;53.672;10.064;2022-12-13T00:29:22;-4.30;99.90
3275;DHT22;1649;53.672;10.064;2022-12-13T00:31:48;-4.20;99.90
3275;DHT22;1649;53.672;10.064;2022-12-13T00:34:13;-4.20;99.90
3275;DHT22;1649;53.672;10.064;2022-12-13T00:36:39;-4.20;99.90
3275;DHT22;1649;53.672;10.064;2022-12-13T00:39:04;-4.20;99.90
3275;DHT22;1649;53.672;10.064;2022-12-13T00:41:32;-4.20;99.90
3275;DHT22;1649;53.672;10.064;2022-12-13T00:43:59;-4.30;99.90
3275;DHT22;1649;53.672;10.064;2022-12-13T00:46:24;-4.20;99.90
3275;DHT22;1649;53.672;10.064;2022-12-13T00:48:52;-4.20;99.90
3275;DHT22;1649;53.672;10.064;2022-12-13T00:51:19;-4.20;99.90
3275;DHT22;1649;53.672;10.064;2022-12-13T00:53:45;-4.10;99.90
3275;DHT22;1649;53.672;10.064;2022-12-13T00:56:22;-4.10;99.90
3275;DHT22;1649;53.672;10.064;2022-12-13T00:58:49;-4.00;99.90
3275;DHT22;1649;53.672;10.064;2022-12-13T01:01:17;-4.00;99.90
3275;DHT22;1649;53.672;10.064;2022-12-13T01:03:43;-3.90;99.90
3275;DHT22;1649;53.672;10.064;2022-12-13T01:06:15;-3.90;99.90
3275;DHT22;1649;53.672;10.064;2022-12-13T01:08:42;-3.80;99.90
3275;DHT22;1649;53.672;10.064;2022-12-13T01:11:07;-3.80;99.90
3275;DHT22;1649;53.672;10.064;2022-12-13T01:13:34;-3.80;99.90
3275;DHT22;1649;53.672;10.064;2022-12-13T01:16:02;-3.80;99.90
3275;DHT22;1649;53.672;10.064;2022-12-13T01:18:28;-3.70;99.90
3275;DHT22;1649;53.672;10.064;2022-12-13T01:21:14;-3.70;99.90
3275;DHT22;1649;53.672;10.064;2022-12-13T01:23:41;-3.70;99.90
3275;DHT22;1649;53.672;10.064;2022-12-13T01:26:11;-3.70;99.90
3275;DHT22;1649;53.672;10.064;2022-12-13T01:28:36;-3.70;99.90
3275;DHT22;1649;53.672;10.064;2022-12-13T01:31:04;-3.70;99.90
3275;DHT22;1649;53.672;10.064;2022-12-13T01:33:31;-3.60;99.90
3275;DHT22;1649;53.672;10.064;2022-12-13T01:36:02;-3.60;99.90
3275;DHT22;1649;53.672;10.064;2022-12-13T01:38:29;-3.60;99.90
3275;DHT22;1649;53.672;10.064;2022-12-13T01:40:55;-3.70;99.90
3275;DHT22;1649;53.672;10.064;2022-12-13T01:43:28;-3.80;99.90
3275;DHT22;1649;53.672;10.064;2022-12-13T01:45:54;-3.80;99.90
3275;DHT22;1649;53.672;10.064;2022-12-13T01:48:34;-3.90;99.90
3275;DHT22;1649;53.672;10.064;2022-12-13T01:51:04;-3.90;99.90
3275;DHT22;1649;53.672;10.064;2022-12-13T01:53:33;-4.00;99.90
3275;DHT22;1649;53.672;10.064;2022-12-13T01:56:07;-4.00;99.90
3275;DHT22;1649;53.672;10.064;2022-12-13T01:58:36;-4.10;99.90
3275;DHT22;1649;53.672;10.064;2022-12-13T02:01:02;-4.20;99.90
3275;DHT22;1649;53.672;10.064;2022-12-13T02:03:28;-4.20;99.90
3275;DHT22;1649;53.672;10.064;2022-12-13T02:06:02;-4.20;99.90
3275;DHT22;1649;53.672;10.064;2022-12-13T02:08:29;-4.30;99.90
3275;DHT22;1649;53.672;10.064;2022-12-13T02:10:56;-4.30;99.90
3275;DHT22;1649;53.672;10.064;2022-12-13T02:13:22;-4.20;99.90
3275;DHT22;1649;53.672;10.064;2022-12-13T02:18:41;-4.20;99.90
3275;DHT22;1649;53.672;10.064;2022-12-13T02:21:17;-4.20;99.90
3275;DHT22;1649;53.672;10.064;2022-12-13T02:24:10;-4.20;99.90
3275;DHT22;1649;53.672;10.064;2022-12-13T02:32:27;-4.20;99.90
3275;DHT22;1649;53.672;10.064;2022-12-13T02:35:07;-4.30;99.90
3275;DHT22;1649;53.672;10.064;2022-12-13T02:37:43;-4.30;99.90
3275;DHT22;1649;53.672;10.064;2022-12-13T02:40:41;-4.30;99.90
3275;DHT22;1649;53.672;10.064;2022-12-13T02:43:14;-4.30;99.90
3275;DHT22;1649;53.672;10.064;2022-12-13T02:45:47;-4.30;99.90
3275;DHT22;1649;53.672;10.064;2022-12-13T02:48:18;-4.30;99.90
3275;DHT22;1649;53.672;10.064;2022-12-13T02:50:45;-4.30;99.90
3275;DHT22;1649;53.672;10.064;2022-12-13T02:53:11;-4.30;99.90
3275;DHT22;1649;53.672;10.064;2022-12-13T02:55:39;-4.30;99.90
3275;DHT22;1649;53.672;10.064;2022-12-13T02:58:04;-4.30;99.90
3275;DHT22;1649;53.672;10.064;2022-12-13T03:00:40;-4.30;99.90
3275;DHT22;1649;53.672;10.064;2022-12-13T03:08:51;-4.20;99.90
3275;DHT22;1649;53.672;10.064;2022-12-13T03:11:20;-4.30;99.90
3275;DHT22;1649;53.672;10.064;2022-12-13T03:13:56;-4.30;99.90
3275;DHT22;1649;53.672;10.064;2022-12-13T03:16:40;-4.40;99.90
3275;DHT22;1649;53.672;10.064;2022-12-13T03:19:09;-4.30;99.90
3275;DHT22;1649;53.672;10.064;2022-12-13T03:21:47;-4.30;99.90
3275;DHT22;1649;53.672;10.064;2022-12-13T03:24:15;-4.40;99.90
3275;DHT22;1649;53.672;10.064;2022-12-13T03:26:41;-4.40;99.90
3275;DHT22;1649;53.672;10.064;2022-12-13T03:29:07;-4.40;99.90
3275;DHT22;1649;53.672;10.064;2022-12-13T03:31:32;-4.40;99.90
3275;DHT22;1649;53.672;10.064;2022-12-13T03:33:58;-4.40;99.90
3275;DHT22;1649;53.672;10.064;2022-12-13T03:36:24;-4.40;99.90
3275;DHT22;1649;53.672;10.064;2022-12-13T03:38:51;-4.40;99.90
3275;DHT22;1649;53.672;10.064;2022-12-13T03:41:21;-4.50;99.90
3275;DHT22;1649;53.672;10.064;2022-12-13T03:43:47;-4.50;99.90
3275;DHT22;1649;53.672;10.064;2022-12-13T03:46:13;-4.50;99.90
3275;DHT22;1649;53.672;10.064;2022-12-13T03:48:39;-4.50;99.90
3275;DHT22;1649;53.672;10.064;2022-12-13T03:51:05;-4.50;99.90
3275;DHT22;1649;53.672;10.064;2022-12-13T03:53:31;-4.60;99.90
3275;DHT22;1649;53.672;10.064;2022-12-13T03:55:56;-4.60;99.90
3275;DHT22;1649;53.672;10.064;2022-12-13T03:58:22;-4.60;99.90
3275;DHT22;1649;53.672;10.064;2022-12-13T04:00:48;-4.60;99.90
3275;DHT22;1649;53.672;10.064;2022-12-13T04:03:13;-4.60;99.90
3275;DHT22;1649;53.672;10.064;2022-12-13T04:05:39;-4.60;99.90
3275;DHT22;1649;53.672;10.064;2022-12-13T04:08:05;-4.60;99.90
3275;DHT22;1649;53.672;10.064;2022-12-13T04:10:30;-4.40;99.90
3275;DHT22;1649;53.672;10.064;2022-12-13T04:12:56;-4.40;99.90
3275;DHT22;1649;53.672;10.064;2022-12-13T04:15:40;-4.30;99.90
3275;DHT22;1649;53.672;10.064;2022-12-13T04:18:14;-4.30;99.90
3275;DHT22;1649;53.672;10.064;2022-12-13T04:20:40;-4.20;99.90
3275;DHT22;1649;53.672;10.064;2022-12-13T04:23:06;-4.20;99.90
3275;DHT22;1649;53.672;10.064;2022-12-13T04:25:31;-4.10;99.90
3275;DHT22;1649;53.672;10.064;2022-12-13T04:27:57;-4.10;99.90
3275;DHT22;1649;53.672;10.064;2022-12-13T04:30:22;-4.10;99.90
3275;DHT22;1649;53.672;10.064;2022-12-13T04:32:48;-4.00;99.90
3275;DHT22;1649;53.672;10.064;2022-12-13T04:35:13;-4.10;99.90
3275;DHT22;1649;53.672;10.064;2022-12-13T04:37:39;-4.10;99.90
3275;DHT22;1649;53.672;10.064;2022-12-13T04:40:05;-3.80;99.90
3275;DHT22;1649;53.672;10.064;2022-12-13T04:42:30;-3.90;99.90
3275;DHT22;1649;53.672;10.064;2022-12-13T04:44:56;-4.00;99.90
3275;DHT22;1649;53.672;10.064;2022-12-13T04:47:21;-3.90;99.90
3275;DHT22;1649;53.672;10.064;2022-12-13T04:49:47;-3.90;99.90
3275;DHT22;1649;53.672;10.064;2022-12-13T04:52:12;-4.00;99.90
3275;DHT22;1649;53.672;10.064;2022-12-13T04:54:38;-4.00;99.90
3275;DHT22;1649;53.672;10.064;2022-12-13T04:57:09;-4.10;99.90
3275;DHT22;1649;53.672;10.064;2022-12-13T04:59:35;-4.10;99.90
3275;DHT22;1649;53.672;10.064;2022-12-13T05:02:02;-4.10;99.90
3275;DHT22;1649;53.672;10.064;2022-12-13T05:04:28;-4.00;99.90
3275;DHT22;1649;53.672;10.064;2022-12-13T05:06:53;-3.80;99.90
3275;DHT22;1649;53.672;10.064;2022-12-13T05:09:19;-3.90;99.90
3275;DHT22;1649;53.672;10.064;2022-12-13T05:11:44;-3.90;99.90
3275;DHT22;1649;53.672;10.064;2022-12-13T05:14:09;-3.90;99.90
3275;DHT22;1649;53.672;10.064;2022-12-13T05:16:35;-3.80;99.90
3275;DHT22;1649;53.672;10.064;2022-12-13T05:19:00;-3.70;99.90
3275;DHT22;1649;53.672;10.064;2022-12-13T05:21:26;-3.60;99.90
3275;DHT22;1649;53.672;10.064;2022-12-13T05:23:51;-3.50;99.90
3275;DHT22;1649;53.672;10.064;2022-12-13T05:26:17;-3.40;99.90
3275;DHT22;1649;53.672;10.064;2022-12-13T05:28:42;-3.60;99.90
3275;DHT22;1649;53.672;10.064;2022-12-13T05:31:10;-3.60;99.90
3275;DHT22;1649;53.672;10.064;2022-12-13T05:33:36;-3.70;99.90
3275;DHT22;1649;53.672;10.064;2022-12-13T05:36:02;-3.60;99.90
3275;DHT22;1649;53.672;10.064;2022-12-13T05:38:28;-3.50;99.90
3275;DHT22;1649;53.672;10.064;2022-12-13T05:40:54;-3.40;99.90
3275;DHT22;1649;53.672;10.064;2022-12-13T05:43:19;-3.50;99.90
3275;DHT22;1649;53.672;10.064;2022-12-13T05:45:45;-3.60;99.90
3275;DHT22;1649;53.672;10.064;2022-12-13T05:48:11;-3.60;99.90
3275;DHT22;1649;53.672;10.064;2022-12-13T05:50:36;-3.70;99.90
3275;DHT22;1649;53.672;10.064;2022-12-13T05:53:05;-3.60;99.90
3275;DHT22;1649;53.672;10.064;2022-12-13T05:55:31;-3.60;99.90
3275;DHT22;1649;53.672;10.064;2022-12-13T05:57:58;-3.70;99.90
3275;DHT22;1649;53.672;10.064;2022-12-13T06:00:24;-3.70;99.90
3275;DHT22;1649;53.672;10.064;2022-12-13T06:02:50;-3.70;99.90
3275;DHT22;1649;53.672;10.064;2022-12-13T06:05:15;-3.50;99.90
3275;DHT22;1649;53.672;10.064;2022-12-13T06:07:41;-3.40;99.90
3275;DHT22;1649;53.672;10.064;2022-12-13T06:10:07;-3.30;99.90
3275;DHT22;1649;53.672;10.064;2022-12-13T06:12:36;-3.20;99.90
3275;DHT22;1649;53.672;10.064;2022-12-13T06:15:03;-3.20;99.90
3275;DHT22;1649;53.672;10.064;2022-12-13T06:17:34;-3.20;99.90
3275;DHT22;1649;53.672;10.064;2022-12-13T06:20:00;-3.30;99.90
3275;DHT22;1649;53.672;10.064;2022-12-13T06:22:26;-3.20;99.90
3275;DHT22;1649;53.672;10.064;2022-12-13T06:24:52;-3.20;99.90
3275;DHT22;1649;53.672;10.064;2022-12-13T06:27:17;-3.30;99.90
3275;DHT22;1649;53.672;10.064;2022-12-13T06:29:43;-3.30;99.90
3275;DHT22;1649;53.672;10.064;2022-12-13T06:32:08;-3.30;99.90
3275;DHT22;1649;53.672;10.064;2022-12-13T06:34:35;-3.30;99.90
3275;DHT22;1649;53.672;10.064;2022-12-13T06:37:02;-3.20;99.90
3275;DHT22;1649;53.672;10.064;2022-12-13T06:39:28;-3.10;99.90
3275;DHT22;1649;53.672;10.064;2022-12-13T06:41:54;-3.10;99.90
3275;DHT22;1649;53.672;10.064;2022-12-13T06:44:20;-3.10;99.90
3275;DHT22;1649;53.672;10.064;2022-12-13T06:46:45;-3.20;99.90
3275;DHT22;1649;53.672;10.064;2022-12-13T06:49:11;-3.20;99.90
3275;DHT22;1649;53.672;10.064;2022-12-13T06:51:36;-3.20;99.90
3275;DHT22;1649;53.672;10.064;2022-12-13T06:54:02;-3.30;99.90
3275;DHT22;1649;53.672;10.064;2022-12-13T06:56:28;-3.30;99.90
3275;DHT22;1649;53.672;10.064;2022-12-13T06:58:54;-3.30;99.90
3275;DHT22;1649;53.672;10.064;2022-12-13T07:01:20;-3.40;99.90
3275;DHT22;1649;53.672;10.064;2022-12-13T07:03:45;-3.30;99.90
3275;DHT22;1649;53.672;10.064;2022-12-13T07:06:16;-3.30;99.90
3275;DHT22;1649;53.672;10.064;2022-12-13T07:08:42;-3.40;99.90
3275;DHT22;1649;53.672;10.064;2022-12-13T07:11:15;-3.40;99.90
3275;DHT22;1649;53.672;10.064;2022-12-13T07:13:41;-3.40;99.90
3275;DHT22;1649;53.672;10.064;2022-12-13T07:16:08;-3.30;99.90
3275;DHT22;1649;53.672;10.064;2022-12-13T07:18:34;-3.30;99.90
3275;DHT22;1649;53.672;10.064;2022-12-13T07:20:59;-3.20;99.90
3275;DHT22;1649;53.672;10.064;2022-12-13T07:23:25;-3.20;99.90
3275;DHT22;1649;53.672;10.064;2022-12-13T07:25:51;-3.20;99.90
3275;DHT22;1649;53.672;10.064;2022-12-13T07:28:18;-3.30;99.90
3275;DHT22;1649;53.672;10.064;2022-12-13T07:30:44;-3.20;99.90
3275;DHT22;1649;53.672;10.064;2022-12-13T07:33:11;-3.20;99.90
3275;DHT22;1649;53.672;10.064;2022-12-13T07:35:36;-3.20;99.90
3275;DHT22;1649;53.672;10.064;2022-12-13T07:38:02;-3.10;99.90
3275;DHT22;1649;53.672;10.064;2022-12-13T07:40:28;-3.10;99.90
3275;DHT22;1649;53.672;10.064;2022-12-13T07:42:55;-3.10;99.90
3275;DHT22;1649;53.672;10.064;2022-12-13T07:45:22;-3.10;99.90
3275;DHT22;1649;53.672;10.064;2022-12-13T07:47:48;-3.10;99.90
3275;DHT22;1649;53.672;10.064;2022-12-13T07:50:14;-3.10;99.90
3275;DHT22;1649;53.672;10.064;2022-12-13T07:52:40;-3.10;99.90
3275;DHT22;1649;53.672;10.064;2022-12-13T07:55:07;-3.10;99.90
3275;DHT22;1649;53.672;10.064;2022-12-13T07:57:33;-3.10;99.90
3275;DHT22;1649;53.672;10.064;2022-12-13T07:59:58;-3.10;99.90
3275;DHT22;1649;53.672;10.064;2022-12-13T08:02:24;-3.00;99.90
3275;DHT22;1649;53.672;10.064;2022-12-13T08:04:50;-2.90;99.90
3275;DHT22;1649;53.672;10.064;2022-12-13T08:07:15;-2.90;99.90
3275;DHT22;1649;53.672;10.064;2022-12-13T08:09:41;-2.90;99.90
3275;DHT22;1649;53.672;10.064;2022-12-13T08:12:07;-2.70;99.90
3275;DHT22;1649;53.672;10.064;2022-12-13T08:14:32;-2.70;99.90
3275;DHT22;1649;53.672;10.064;2022-12-13T08:16:58;-2.70;99.90
3275;DHT22;1649;53.672;10.064;2022-12-13T08:19:24;-2.60;99.90
3275;DHT22;1649;53.672;10.064;2022-12-13T08:21:49;-2.60;99.90
3275;DHT22;1649;53.672;10.064;2022-12-13T08:24:19;-2.50;99.90
3275;DHT22;1649;53.672;10.064;2022-12-13T08:26:44;-2.50;99.90
3275;DHT22;1649;53.672;10.064;2022-12-13T08:29:13;-2.50;99.90
3275;DHT22;1649;53.672;10.064;2022-12-13T08:31:38;-2.50;99.90
3275;DHT22;1649;53.672;10.064;2022-12-13T08:34:04;-2.60;99.90
3275;DHT22;1649;53.672;10.064;2022-12-13T08:36:29;-2.60;99.90
3275;DHT22;1649;53.672;10.064;2022-12-13T08:38:57;-2.60;99.90
3275;DHT22;1649;53.672;10.064;2022-12-13T08:41:23;-2.60;99.90
3275;DHT22;1649;53.672;10.064;2022-12-13T08:43:49;-2.60;99.90
3275;DHT22;1649;53.672;10.064;2022-12-13T08:46:15;-2.60;99.90
3275;DHT22;1649;53.672;10.064;2022-12-13T08:48:40;-2.70;99.90
3275;DHT22;1649;53.672;10.064;2022-12-13T08:51:10;-2.70;99.90
3275;DHT22;1649;53.672;10.064;2022-12-13T08:53:36;-2.70;99.90
3275;DHT22;1649;53.672;10.064;2022-12-13T08:56:04;-2.70;99.90
3275;DHT22;1649;53.672;10.064;2022-12-13T08:58:30;-2.60;99.90
3275;DHT22;1649;53.672;10.064;2022-12-13T09:00:56;-2.50;99.90
3275;DHT22;1649;53.672;10.064;2022-12-13T09:03:22;-2.50;99.90
3275;DHT22;1649;53.672;10.064;2022-12-13T09:05:47;-2.40;99.90
3275;DHT22;1649;53.672;10.064;2022-12-13T09:08:13;-2.50;99.90
3275;DHT22;1649;53.672;10.064;2022-12-13T09:10:38;-2.50;99.90
3275;DHT22;1649;53.672;10.064;2022-12-13T09:13:04;-2.40;99.90
3275;DHT22;1649;53.672;10.064;2022-12-13T09:15:31;-2.40;99.90
3275;DHT22;1649;53.672;10.064;2022-12-13T09:17:57;-2.20;99.90
3275;DHT22;1649;53.672;10.064;2022-12-13T09:20:23;-2.00;99.90
3275;DHT22;1649;53.672;10.064;2022-12-13T09:22:48;-1.80;99.90
3275;DHT22;1649;53.672;10.064;2022-12-13T09:25:14;-1.70;99.90
3275;DHT22;1649;53.672;10.064;2022-12-13T09:27:39;-1.60;99.90
3275;DHT22;1649;53.672;10.064;2022-12-13T09:30:05;-1.50;99.90
3275;DHT22;1649;53.672;10.064;2022-12-13T09:32:32;-1.40;99.90
3275;DHT22;1649;53.672;10.064;2022-12-13T09:34:58;-1.20;99.90
3275;DHT22;1649;53.672;10.064;2022-12-13T09:37:24;-1.10;99.90
3275;DHT22;1649;53.672;10.064;2022-12-13T09:39:49;-0.90;99.90
3275;DHT22;1649;53.672;10.064;2022-12-13T09:42:26;-0.70;99.90
3275;DHT22;1649;53.672;10.064;2022-12-13T09:44:57;-0.50;99.90
3275;DHT22;1649;53.672;10.064;2022-12-13T09:47:42;-0.40;99.90
3275;DHT22;1649;53.672;10.064;2022-12-13T09:50:14;-0.40;99.90
3275;DHT22;1649;53.672;10.064;2022-12-13T09:52:43;-0.50;99.90
3275;DHT22;1649;53.672;10.064;2022-12-13T09:55:36;-0.70;99.90
3275;DHT22;1649;53.672;10.064;2022-12-13T09:58:07;-0.80;99.90
3275;DHT22;1649;53.672;10.064;2022-12-13T10:00:36;-0.90;99.90
3275;DHT22;1649;53.672;10.064;2022-12-13T10:03:01;-1.00;99.90
3275;DHT22;1649;53.672;10.064;2022-12-13T10:05:30;-1.00;99.90
3275;DHT22;1649;53.672;10.064;2022-12-13T10:07:59;-1.00;99.90
3275;DHT22;1649;53.672;10.064;2022-12-13T10:10:25;-1.00;99.90
3275;DHT22;1649;53.672;10.064;2022-12-13T10:15:28;-0.90;99.90
3275;DHT22;1649;53.672;10.064;2022-12-13T10:17:55;-0.90;99.90
3275;DHT22;1649;53.672;10.064;2022-12-13T10:20:24;-0.80;99.90
3275;DHT22;1649;53.672;10.064;2022-12-13T10:22:53;-0.70;99.90
3275;DHT22;1649;53.672;10.064;2022-12-13T10:25:45;-0.70;99.90
3275;DHT22;1649;53.672;10.064;2022-12-13T10:28:12;-0.70;99.90
3275;DHT22;1649;53.672;10.064;2022-12-13T10:30:41;-0.70;99.90
3275;DHT22;1649;53.672;10.064;2022-12-13T10:33:28;-0.70;99.90
3275;DHT22;1649;53.672;10.064;2022-12-13T10:36:14;-0.70;99.90
3275;DHT22;1649;53.672;10.064;2022-12-13T10:38:42;-0.80;99.90
3275;DHT22;1649;53.672;10.064;2022-12-13T10:41:35;-0.70;99.90
3275;DHT22;1649;53.672;10.064;2022-12-13T10:44:18;-0.70;99.90
3275;DHT22;1649;53.672;10.064;2022-12-13T10:46:57;-0.70;99.90
3275;DHT22;1649;53.672;10.064;2022-12-13T10:49:28;-0.50;99.90
3275;DHT22;1649;53.672;10.064;2022-12-13T10:51:55;-0.60;99.90
3275;DHT22;1649;53.672;10.064;2022-12-13T10:54:25;-0.60;99.90
3275;DHT22;1649;53.672;10.064;2022-12-13T10:56:52;-0.60;99.90
3275;DHT22;1649;53.672;10.064;2022-12-13T10:59:34;-0.60;99.90
3275;DHT22;1649;53.672;10.064;2022-12-13T11:02:32;-0.60;99.90
3275;DHT22;1649;53.672;10.064;2022-12-13T11:05:15;-0.60;99.90
3275;DHT22;1649;53.672;10.064;2022-12-13T11:07:45;-0.70;99.90
3275;DHT22;1649;53.672;10.064;2022-12-13T11:12:41;-0.60;99.90
3275;DHT22;1649;53.672;10.064;2022-12-13T11:15:19;-0.60;99.90
3275;DHT22;1649;53.672;10.064;2022-12-13T11:17:57;-0.60;99.90
3275;DHT22;1649;53.672;10.064;2022-12-13T11:20:30;-0.50;99.90
3275;DHT22;1649;53.672;10.064;2022-12-13T11:23:03;-0.50;99.90
3275;DHT22;1649;53.672;10.064;2022-12-13T11:25:36;-0.50;99.90
3275;DHT22;1649;53.672;10.064;2022-12-13T11:33:26;-0.60;99.90
3275;DHT22;1649;53.672;10.064;2022-12-13T11:36:13;-0.60;99.90
3275;DHT22;1649;53.672;10.064;2022-12-13T11:41:52;-0.40;99.90
3275;DHT22;1649;53.672;10.064;2022-12-13T11:46:59;-0.40;99.90
3275;DHT22;1649;53.672;10.064;2022-12-13T11:49:41;-0.30;99.90
3275;DHT22;1649;53.672;10.064;2022-12-13T11:52:16;-0.30;99.90
3275;DHT22;1649;53.672;10.064;2022-12-13T11:57:53;-0.40;99.90
3275;DHT22;1649;53.672;10.064;2022-12-13T12:00:33;-0.40;99.90
3275;DHT22;1649;53.672;10.064;2022-12-13T12:05:34;-0.30;99.90
3275;DHT22;1649;53.672;10.064;2022-12-13T12:08:08;-0.30;99.90
3275;DHT22;1649;53.672;10.064;2022-12-13T12:10:40;-0.20;99.90
3275;DHT22;1649;53.672;10.064;2022-12-13T12:13:21;-0.30;99.90
3275;DHT22;1649;53.672;10.064;2022-12-13T12:16:13;-0.40;99.90
3275;DHT22;1649;53.672;10.064;2022-12-13T12:18:42;-0.30;99.90
3275;DHT22;1649;53.672;10.064;2022-12-13T12:21:36;-0.30;99.90
3275;DHT22;1649;53.672;10.064;2022-12-13T12:24:19;-0.20;99.90
3275;DHT22;1649;53.672;10.064;2022-12-13T12:32:31;-0.10;99.90
3275;DHT22;1649;53.672;10.064;2022-12-13T12:35:30;-0.10;99.90
3275;DHT22;1649;53.672;10.064;2022-12-13T12:38:25;-0.20;99.90
3275;DHT22;1649;53.672;10.064;2022-12-13T12:41:13;-0.10;99.90
3275;DHT22;1649;53.672;10.064;2022-12-13T12:43:43;-0.10;99.90
3275;DHT22;1649;53.672;10.064;2022-12-13T12:49:34;0.00;99.90
3275;DHT22;1649;53.672;10.064;2022-12-13T12:52:32;0.10;99.90
3275;DHT22;1649;53.672;10.064;2022-12-13T12:55:29;0.10;99.90
3275;DHT22;1649;53.672;10.064;2022-12-13T13:01:16;0.20;99.90
3275;DHT22;1649;53.672;10.064;2022-12-13T13:03:47;0.20;99.90
3275;DHT22;1649;53.672;10.064;2022-12-13T13:06:27;0.20;99.90
3275;DHT22;1649;53.672;10.064;2022-12-13T13:09:00;0.20;99.90
3275;DHT22;1649;53.672;10.064;2022-12-13T13:11:29;0.20;99.90
3275;DHT22;1649;53.672;10.064;2022-12-13T13:16:39;0.20;99.90
3275;DHT22;1649;53.672;10.064;2022-12-13T13:21:59;0.20;99.90
3275;DHT22;1649;53.672;10.064;2022-12-13T13:24:27;0.20;99.90
3275;DHT22;1649;53.672;10.064;2022-12-13T13:26:58;0.20;
3275;DHT22;1649;53.672;10.064;2022-12-13T13:29:33;0.20;99.90
3275;DHT22;1649;53.672;10.064;2022-12-13T13:32:02;0.10;99.90
3275;DHT22;1649;53.672;10.064;2022-12-13T13:34:40;0.10;99.90
3275;DHT22;1649;53.672;10.064;2022-12-13T13:40:01;0.00;99.90
3275;DHT22;1649;53.672;10.064;2022-12-13T13:42:29;0.10;99.90
3275;DHT22;1649;53.672;10.064;2022-12-13T13:48:21;0.10;99.90
3275;DHT22;1649;53.672;10.064;2022-12-13T13:51:02;0.00;99.90
3275;DHT22;1649;53.672;10.064;2022-12-13T13:59:46;0.00;99.90
3275;DHT22;1649;53.672;10.064;2022-12-13T14:02:57;-0.10;99.90
3275;DHT22;1649;53.672;10.064;2022-12-13T14:11:47;-0.20;99.90
3275;DHT22;1649;53.672;10.064;2022-12-13T14:18:16;-0.30;99.90
3275;DHT22;1649;53.672;10.064;2022-12-13T14:26:44;-0.40;99.90
3275;DHT22;1649;53.672;10.064;2022-12-13T14:29:18;-0.40;99.90
3275;DHT22;1649;53.672;10.064;2022-12-13T14:31:46;-0.40;99.90
3275;DHT22;1649;53.672;10.064;2022-12-13T14:34:32;-0.40;99.90
3275;DHT22;1649;53.672;10.064;2022-12-13T14:36:58;-0.50;99.90
3275;DHT22;1649;53.672;10.064;2022-12-13T14:39:25;-0.50;99.90
3275;DHT22;1649;53.672;10.064;2022-12-13T14:41:53;-0.50;99.90
3275;DHT22;1649;53.672;10.064;2022-12-13T14:44:27;-0.40;99.90
3275;DHT22;1649;53.672;10.064;2022-12-13T14:49:26;-0.40;99.90
3275;DHT22;1649;53.672;10.064;2022-12-13T14:51:54;-0.30;99.90
3275;DHT22;1649;53.672;10.064;2022-12-13T14:54:28;-0.40;99.90
3275;DHT22;1649;53.672;10.064;2022-12-13T14:56:57;-0.40;99.90
3275;DHT22;1649;53.672;10.064;2022-12-13T14:59:23;-0.40;99.90
3275;DHT22;1649;53.672;10.064;2022-12-13T15:01:56;-0.40;99.90
3275;DHT22;1649;53.672;10.064;2022-12-13T15:04:33;-0.50;99.90
3275;DHT22;1649;53.672;10.064;2022-12-13T15:07:22;-0.50;99.90
3275;DHT22;1649;53.672;10.064;2022-12-13T15:09:59;-0.60;99.90
3275;DHT22;1649;53.672;10.064;2022-12-13T15:12:26;-0.60;99.90
3275;DHT22;1649;53.672;10.064;2022-12-13T15:15:03;-0.70;99.90
3275;DHT22;1649;53.672;10.064;2022-12-13T15:17:37;-0.70;99.90
3275;DHT22;1649;53.672;10.064;2022-12-13T15:20:30;-0.70;99.90
3275;DHT22;1649;53.672;10.064;2022-12-13T15:22:58;-0.70;99.90
3275;DHT22;1649;53.672;10.064;2022-12-13T15:25:24;-0.80;99.90
3275;DHT22;1649;53.672;10.064;2022-12-13T15:27:50;-0.90;99.90
3275;DHT22;1649;53.672;10.064;2022-12-13T15:30:18;-0.90;99.90
3275;DHT22;1649;53.672;10.064;2022-12-13T15:33:06;-1.00;99.90
3275;DHT22;1649;53.672;10.064;2022-12-13T15:35:35;-1.00;99.90
3275;DHT22;1649;53.672;10.064;2022-12-13T15:38:02;-1.00;99.90
3275;DHT22;1649;53.672;10.064;2022-12-13T15:40:28;-1.00;99.90
3275;DHT22;1649;53.672;10.064;2022-12-13T15:42:53;-1.00;99.90
3275;DHT22;1649;53.672;10.064;2022-12-13T15:45:22;-1.00;99.90
3275;DHT22;1649;53.672;10.064;2022-12-13T15:47:49;-1.00;99.90
3275;DHT22;1649;53.672;10.064;2022-12-13T15:50:33;-1.10;99.90
3275;DHT22;1649;53.672;10.064;2022-12-13T15:53:20;-1.20;99.90
3275;DHT22;1649;53.672;10.064;2022-12-13T15:55:48;-1.20;99.90
3275;DHT22;1649;53.672;10.064;2022-12-13T15:58:32;-1.30;99.90
3275;DHT22;1649;53.672;10.064;2022-12-13T16:00:58;-1.30;99.90
3275;DHT22;1649;53.672;10.064;2022-12-13T16:03:42;-1.40;99.90
3275;DHT22;1649;53.672;10.064;2022-12-13T16:06:08;-1.40;99.90
3275;DHT22;1649;53.672;10.064;2022-12-13T16:08:38;-1.50;99.90
3275;DHT22;1649;53.672;10.064;2022-12-13T16:11:05;-1.50;99.90
3275;DHT22;1649;53.672;10.064;2022-12-13T16:13:34;-1.60;99.90
3275;DHT22;1649;53.672;10.064;2022-12-13T16:16:25;-1.60;99.90
3275;DHT22;1649;53.672;10.064;2022-12-13T16:18:56;-1.50;99.90
3275;DHT22;1649;53.672;10.064;2022-12-13T16:21:23;-1.50;99.90
3275;DHT22;1649;53.672;10.064;2022-12-13T16:23:48;-1.40;99.90
3275;DHT22;1649;53.672;10.064;2022-12-13T16:26:23;-1.40;99.90
3275;DHT22;1649;53.672;10.064;2022-12-13T16:28:50;-1.50;99.90
3275;DHT22;1649;53.672;10.064;2022-12-13T16:31:24;-1.60;99.90
3275;DHT22;1649;53.672;10.064;2022-12-13T16:33:50;-1.60;99.90
3275;DHT22;1649;53.672;10.064;2022-12-13T16:36:16;-1.60;99.90
3275;DHT22;1649;53.672;10.064;2022-12-13T16:38:41;-1.60;99.90
3275;DHT22;1649;53.672;10.064;2022-12-13T16:41:07;-1.60;99.90
3275;DHT22;1649;53.672;10.064;2022-12-13T16:43:35;-1.60;99.90
3275;DHT22;1649;53.672;10.064;2022-12-13T16:46:03;-1.60;99.90
3275;DHT22;1649;53.672;10.064;2022-12-13T16:48:29;-1.70;99.90
3275;DHT22;1649;53.672;10.064;2022-12-13T16:50:55;-1.80;99.90
3275;DHT22;1649;53.672;10.064;2022-12-13T16:53:21;-1.80;99.90
3275;DHT22;1649;53.672;10.064;2022-12-13T16:55:46;-1.90;99.90
3275;DHT22;1649;53.672;10.064;2022-12-13T16:58:14;-2.00;99.90
3275;DHT22;1649;53.672;10.064;2022-12-13T17:00:41;-1.90;99.90
3275;DHT22;1649;53.672;10.064;2022-12-13T17:03:07;-2.00;99.90
3275;DHT22;1649;53.672;10.064;2022-12-13T17:05:34;-2.00;99.90
3275;DHT22;1649;53.672;10.064;2022-12-13T17:08:00;-2.00;99.90
3275;DHT22;1649;53.672;10.064;2022-12-13T17:10:26;-2.00;99.90
3275;DHT22;1649;53.672;10.064;2022-12-13T17:12:52;-2.00;99.90
3275;DHT22;1649;53.672;10.064;2022-12-13T17:15:18;-2.00;99.90
3275;DHT22;1649;53.672;10.064;2022-12-13T17:17:45;-2.00;99.90
3275;DHT22;1649;53.672;10.064;2022-12-13T17:20:13;-2.00;99.90
3275;DHT22;1649;53.672;10.064;2022-12-13T17:22:39;-1.90;99.90
3275;DHT22;1649;53.672;10.064;2022-12-13T17:25:06;-1.90;99.90
3275;DHT22;1649;53.672;10.064;2022-12-13T17:27:32;-1.90;99.90